Datos actuales meteorológicos del Aeropuerto de Valencia      LEVC Valencia
Temperatura
9°C Temperatura
8°C Punto de rocío
94% Humedad



Viento
5 KM/H
3 MPH
1 M/S
3 NUDO



270°
Oeste
Condiciones actuales

Claro Claro
Presión 1029.92 (hPa) - 30.41 (inHg)
Visibilidad 5 (milla) - 8 (km)
✈️ Manises
Código de aeropuerto LEVC

localidad: Valencia
Distancia de Meteo Lliria: 18 (km)

Metar:
LEVC 212130Z 27003KT 8000 NSC 09/08 Q1030 NOSIG

Hora: 21-02-2020 22:30 CET
Follow @meteolliria2013